Terminal Aerodrome Forecast
Issued by NWS

Home | Current Version | Previous Version | Text Only | Print | Product List | Glossary On
Versions: 1 2 3 4 5 6 7 8 9 10 11 12 13 14 15 16
887
FTUS45 KRIW 182329
TAFWRL
TAF
KWRL 182329Z 1900/1924 31010KT P6SM -SN OVC035
      TEMPO 1900/1904 3SM -SN OVC022
     FM191300 31008KT 6SM -SN OVC024=

USA.gov is the U.S. government's official web portal to all federal, state and local government web resources and services.